Test XHTML 1.0 Strict Page for WU-History Testing
Station Historical Data
 
Daily Summary for April 16, 2014 Units:  Both    English   Metric
« Previous Day
Next Day »
Daily Weekly Monthly Yearly Custom
  Current: High: Low: Average:
Temperature: 52.0 °F /  11.1 °C 52.0 °F /  11.1 °C 33.8 °F /  1 °C 39.7 °F /  4.3 °C
Dew Point: 41.7 °F /  5.4 °C 42.2 °F /  5.7 °C 33.3 °F /  0.7 °C 36.6 °F /  2.6 °C
Humidity: 68% 99% 68% 89%
Wind Speed: 6.9mph /  11.1km/h 9.2mph /  14.8km/h - 3.2mph /  5.1km/h
Wind Gust: 6.9mph /  11.1km/h 9.2mph /  14.8km/h - -
WindSSE - - South
Pressure: 30.34 in /  1027.3 hPa 30.40 in /  1029.3 hPa 30.34 in /  1027.3 hPa -
Precipitation: 0.00 in /  0 mm      
Historical Graphs
 
 
Weather-Above Climate History
Untitled
Tabular Data for April 16, 2014
Time Temperature Dew Point Pressure Wind Wind Speed Wind Gust Humidity Rainfall Rate (Hourly)
00:04 41.5 °F /  5.3 °C 35.8 °F /  2.1 °C 30.40in /  1029.3hPa SW 2.3mph /  3.7km/h 2.3mph /  3.7km/h 80% 0.00in /  0cm
00:09 41.4 °F /  5.2 °C 35.7 °F /  2.1 °C 30.40in /  1029.3hPa South 1.5mph /  2.4km/h 1.5mph /  2.4km/h 80% 0.00in /  0cm
00:14 41.2 °F /  5.1 °C 35.5 °F /  1.9 °C 30.39in /  1029hPa SSE 3.5mph /  5.6km/h 3.5mph /  5.6km/h 80% 0.00in /  0cm
00:19 41.0 °F /  5 °C 35.6 °F /  2 °C 30.39in /  1029hPa SSE 5.4mph /  8.7km/h 5.4mph /  8.7km/h 81% 0.00in /  0cm
00:24 41.0 °F /  5 °C 35.6 °F /  2 °C 30.40in /  1029.3hPa South 2.3mph /  3.7km/h 2.3mph /  3.7km/h 81% 0.00in /  0cm
00:29 40.8 °F /  4.9 °C 35.4 °F /  1.9 °C 30.40in /  1029.3hPa South 3.5mph /  5.6km/h 3.5mph /  5.6km/h 81% 0.00in /  0cm
00:34 40.8 °F /  4.9 °C 35.4 °F /  1.9 °C 30.40in /  1029.3hPa SSW 5.8mph /  9.3km/h 5.8mph /  9.3km/h 81% 0.00in /  0cm
00:39 40.8 °F /  4.9 °C 35.4 °F /  1.9 °C 30.39in /  1029hPa SW 4.6mph /  7.4km/h 4.6mph /  7.4km/h 81% 0.00in /  0cm
00:44 40.6 °F /  4.8 °C 35.3 °F /  1.8 °C 30.39in /  1029hPa SSE 5.2mph /  8.4km/h 5.2mph /  8.4km/h 81% 0.00in /  0cm
00:49 40.3 °F /  4.6 °C 35.2 °F /  1.8 °C 30.39in /  1029hPa South 0.4mph /  0.6km/h   82% 0.00in /  0cm
00:54 39.9 °F /  4.4 °C 34.6 °F /  1.4 °C 30.39in /  1029hPa SE 2.3mph /  3.7km/h 2.3mph /  3.7km/h 81% 0.00in /  0cm
00:59 39.6 °F /  4.2 °C 34.5 °F /  1.4 °C 30.39in /  1029hPa Calm     82% 0.00in /  0cm
01:04 39.6 °F /  4.2 °C 34.5 °F /  1.4 °C 30.39in /  1029hPa SSE 2.3mph /  3.7km/h 2.3mph /  3.7km/h 82% 0.00in /  0cm
01:09 39.6 °F /  4.2 °C 34.5 °F /  1.4 °C 30.39in /  1029hPa SSE 3.2mph /  5.1km/h 3.2mph /  5.1km/h 82% 0.00in /  0cm
01:14 39.6 °F /  4.2 °C 34.8 °F /  1.6 °C 30.39in /  1029hPa South 3.3mph /  5.3km/h 3.3mph /  5.3km/h 83% 0.00in /  0cm
01:19 39.6 °F /  4.2 °C 34.5 °F /  1.4 °C 30.39in /  1029hPa South 3.5mph /  5.6km/h 3.5mph /  5.6km/h 82% 0.00in /  0cm
01:24 39.4 °F /  4.1 °C 34.6 °F /  1.4 °C 30.38in /  1028.7hPa SW 1.1mph /  1.8km/h 1.1mph /  1.8km/h 83% 0.00in /  0cm
01:29 39.4 °F /  4.1 °C 34.6 °F /  1.4 °C 30.39in /  1029hPa South 1.3mph /  2.1km/h 1.3mph /  2.1km/h 83% 0.00in /  0cm
01:34 39.0 °F /  3.9 °C 34.3 °F /  1.3 °C 30.39in /  1029hPa SE 1.2mph /  1.9km/h 1.2mph /  1.9km/h 83% 0.00in /  0cm
01:39 38.7 °F /  3.7 °C 34.2 °F /  1.2 °C 30.39in /  1029hPa SSE 4.6mph /  7.4km/h 4.6mph /  7.4km/h 84% 0.00in /  0cm
01:44 38.5 °F /  3.6 °C 34.1 °F /  1.2 °C 30.39in /  1029hPa South 1.2mph /  1.9km/h 1.2mph /  1.9km/h 84% 0.00in /  0cm
01:49 37.9 °F /  3.3 °C 33.8 °F /  1 °C 30.39in /  1029hPa SE 2.3mph /  3.7km/h 2.3mph /  3.7km/h 85% 0.00in /  0cm
01:54 37.6 °F /  3.1 °C 33.5 °F /  0.8 °C 30.38in /  1028.7hPa SSE 1.2mph /  1.9km/h 1.2mph /  1.9km/h 85% 0.00in /  0cm
01:59 37.4 °F /  3 °C 33.6 °F /  0.9 °C 30.39in /  1029hPa SSE 1.6mph /  2.6km/h 1.6mph /  2.6km/h 86% 0.00in /  0cm
02:04 37.6 °F /  3.1 °C 33.8 °F /  1 °C 30.39in /  1029hPa South 2.3mph /  3.7km/h 2.3mph /  3.7km/h 86% 0.00in /  0cm
02:10 37.8 °F /  3.2 °C 34.2 °F /  1.2 °C 30.39in /  1029hPa SSE 2.3mph /  3.7km/h 2.3mph /  3.7km/h 87% 0.00in /  0cm
02:15 37.6 °F /  3.1 °C 34.1 °F /  1.2 °C 30.38in /  1028.7hPa SSW 2.3mph /  3.7km/h 2.3mph /  3.7km/h 87% 0.00in /  0cm
02:20 37.4 °F /  3 °C 33.9 °F /  1.1 °C 30.39in /  1029hPa South 3.5mph /  5.6km/h 3.5mph /  5.6km/h 87% 0.00in /  0cm
02:25 37.6 °F /  3.1 °C 34.6 °F /  1.4 °C 30.39in /  1029hPa SE 1.2mph /  1.9km/h 1.2mph /  1.9km/h 89% 0.00in /  0cm
02:30 37.4 °F /  3 °C 34.5 °F /  1.4 °C 30.39in /  1029hPa SE 3.5mph /  5.6km/h 3.5mph /  5.6km/h 89% 0.00in /  0cm
02:35 37.4 °F /  3 °C 34.5 °F /  1.4 °C 30.39in /  1029hPa SE 4.6mph /  7.4km/h 4.6mph /  7.4km/h 89% 0.00in /  0cm
02:40 37.4 °F /  3 °C 34.7 °F /  1.5 °C 30.39in /  1029hPa SSE 4.6mph /  7.4km/h 4.6mph /  7.4km/h 90% 0.00in /  0cm
02:46 37.2 °F /  2.9 °C 34.6 °F /  1.4 °C 30.38in /  1028.7hPa SSE 3.5mph /  5.6km/h 3.5mph /  5.6km/h 90% 0.00in /  0cm
02:51 37.4 °F /  3 °C 35.3 °F /  1.8 °C 30.38in /  1028.7hPa SSE 2.3mph /  3.7km/h 2.3mph /  3.7km/h 92% 0.00in /  0cm
02:56 37.4 °F /  3 °C 35.0 °F /  1.7 °C 30.39in /  1029hPa SSE 4.6mph /  7.4km/h 4.6mph /  7.4km/h 91% 0.00in /  0cm
03:01 37.6 °F /  3.1 °C 35.5 °F /  1.9 °C 30.39in /  1029hPa SSW 1.2mph /  1.9km/h   92% 0.00in /  0cm
03:06 37.6 °F /  3.1 °C 35.2 °F /  1.8 °C 30.39in /  1029hPa SSW 1.2mph /  1.9km/h 1.2mph /  1.9km/h 91% 0.00in /  0cm
03:11 37.9 °F /  3.3 °C 35.8 °F /  2.1 °C 30.39in /  1029hPa SW 2.3mph /  3.7km/h 2.3mph /  3.7km/h 92% 0.00in /  0cm
03:16 37.9 °F /  3.3 °C 35.8 °F /  2.1 °C 30.39in /  1029hPa SSE 3.5mph /  5.6km/h 3.5mph /  5.6km/h 92% 0.00in /  0cm
03:21 38.1 °F /  3.4 °C 36.0 °F /  2.2 °C 30.38in /  1028.7hPa SSW 4.6mph /  7.4km/h 4.6mph /  7.4km/h 92% 0.00in /  0cm
03:26 37.9 °F /  3.3 °C 35.8 °F /  2.1 °C 30.39in /  1029hPa South 2.3mph /  3.7km/h 2.3mph /  3.7km/h 92% 0.00in /  0cm
03:31 37.9 °F /  3.3 °C 35.8 °F /  2.1 °C 30.38in /  1028.7hPa South 4.6mph /  7.4km/h 4.6mph /  7.4km/h 92% 0.00in /  0cm
03:36 38.1 °F /  3.4 °C 36.0 °F /  2.2 °C 30.38in /  1028.7hPa SSW 2.3mph /  3.7km/h 2.3mph /  3.7km/h 92% 0.00in /  0cm
03:41 38.1 °F /  3.4 °C 36.3 °F /  2.4 °C 30.38in /  1028.7hPa SSW 3.5mph /  5.6km/h 3.5mph /  5.6km/h 93% 0.00in /  0cm
03:46 37.8 °F /  3.2 °C 35.6 °F /  2 °C 30.38in /  1028.7hPa SW 4.6mph /  7.4km/h 4.6mph /  7.4km/h 92% 0.00in /  0cm
03:51 37.6 °F /  3.1 °C 35.7 °F /  2.1 °C 30.38in /  1028.7hPa SSE 2.4mph /  3.9km/h 2.4mph /  3.9km/h 93% 0.00in /  0cm
03:56 37.2 °F /  2.9 °C 35.4 °F /  1.9 °C 30.38in /  1028.7hPa SE 4.6mph /  7.4km/h 4.6mph /  7.4km/h 93% 0.00in /  0cm
04:01 37.2 °F /  2.9 °C 35.4 °F /  1.9 °C 30.38in /  1028.7hPa SSE 4.6mph /  7.4km/h 4.6mph /  7.4km/h 93% 0.00in /  0cm
04:06 37.0 °F /  2.8 °C 35.2 °F /  1.8 °C 30.38in /  1028.7hPa South 3.5mph /  5.6km/h 3.5mph /  5.6km/h 93% 0.00in /  0cm
04:11 37.0 °F /  2.8 °C 35.5 °F /  1.9 °C 30.38in /  1028.7hPa SSW 2.3mph /  3.7km/h 2.3mph /  3.7km/h 94% 0.00in /  0cm
04:16 36.9 °F /  2.7 °C 35.3 °F /  1.8 °C 30.38in /  1028.7hPa SSE 2.3mph /  3.7km/h 2.3mph /  3.7km/h 94% 0.00in /  0cm
04:21 36.7 °F /  2.6 °C 35.1 °F /  1.7 °C 30.38in /  1028.7hPa SSE 1.2mph /  1.9km/h 1.2mph /  1.9km/h 94% 0.00in /  0cm
04:26 36.3 °F /  2.4 °C 34.8 °F /  1.6 °C 30.38in /  1028.7hPa SSE 3.5mph /  5.6km/h 3.5mph /  5.6km/h 94% 0.00in /  0cm
04:31 36.3 °F /  2.4 °C 35.0 °F /  1.7 °C 30.38in /  1028.7hPa SSE 3.5mph /  5.6km/h 3.5mph /  5.6km/h 95% 0.00in /  0cm
04:36 36.3 °F /  2.4 °C 35.0 °F /  1.7 °C 30.38in /  1028.7hPa SE 3.5mph /  5.6km/h 3.5mph /  5.6km/h 95% 0.00in /  0cm
04:42 36.1 °F /  2.3 °C 34.8 °F /  1.6 °C 30.39in /  1029hPa Calm     95% 0.00in /  0cm
04:47 35.8 °F /  2.1 °C 34.5 °F /  1.4 °C 30.39in /  1029hPa Calm     95% 0.00in /  0cm
04:52 35.6 °F /  2 °C 34.6 °F /  1.4 °C 30.38in /  1028.7hPa South 1.4mph /  2.3km/h 1.4mph /  2.3km/h 96% 0.00in /  0cm
04:57 35.4 °F /  1.9 °C 34.1 °F /  1.2 °C 30.38in /  1028.7hPa SSE 1.2mph /  1.9km/h 1.2mph /  1.9km/h 95% 0.00in /  0cm
05:01 35.4 °F /  1.9 °C 34.4 °F /  1.3 °C 30.38in /  1028.7hPa Calm     96% 0.00in /  0cm
05:02 35.6 °F /  2 °C 34.6 °F /  1.4 °C 30.38in /  1028.7hPa SSE 2.3mph /  3.7km/h 2.3mph /  3.7km/h 96% 0.00in /  0cm
05:03 35.6 °F /  2 °C 34.6 °F /  1.4 °C 30.38in /  1028.7hPa South 2.3mph /  3.7km/h 2.3mph /  3.7km/h 96% 0.00in /  0cm
05:04 35.6 °F /  2 °C 34.6 °F /  1.4 °C 30.38in /  1028.7hPa Calm     96% 0.00in /  0cm
05:08 35.6 °F /  2 °C 34.8 °F /  1.6 °C 30.38in /  1028.7hPa Calm     97% 0.00in /  0cm
05:13 35.2 °F /  1.8 °C 34.2 °F /  1.2 °C 30.38in /  1028.7hPa South 2.3mph /  3.7km/h 2.3mph /  3.7km/h 96% 0.00in /  0cm
05:14 35.2 °F /  1.8 °C 34.2 °F /  1.2 °C 30.38in /  1028.7hPa SE 3.5mph /  5.6km/h 3.5mph /  5.6km/h 96% 0.00in /  0cm
05:19 35.1 °F /  1.7 °C 34.3 °F /  1.3 °C 30.38in /  1028.7hPa SSW 2.3mph /  3.7km/h 2.3mph /  3.7km/h 97% 0.00in /  0cm
05:24 35.1 °F /  1.7 °C 34.3 °F /  1.3 °C 30.38in /  1028.7hPa SSE 2.3mph /  3.7km/h 2.3mph /  3.7km/h 97% 0.00in /  0cm
05:29 35.1 °F /  1.7 °C 34.3 °F /  1.3 °C 30.38in /  1028.7hPa SSW 2.3mph /  3.7km/h 2.3mph /  3.7km/h 97% 0.00in /  0cm
05:34 35.4 °F /  1.9 °C 34.7 °F /  1.5 °C 30.38in /  1028.7hPa Calm     97% 0.00in /  0cm
05:39 35.1 °F /  1.7 °C 34.6 °F /  1.4 °C 30.38in /  1028.7hPa Calm   0.1mph /  0.2km/h 98% 0.00in /  0cm
05:44 34.9 °F /  1.6 °C 34.4 °F /  1.3 °C 30.38in /  1028.7hPa Calm     98% 0.00in /  0cm
05:49 34.3 °F /  1.3 °C 33.6 °F /  0.9 °C 30.38in /  1028.7hPa SE 2.3mph /  3.7km/h 2.3mph /  3.7km/h 97% 0.00in /  0cm
05:54 34.3 °F /  1.3 °C 33.8 °F /  1 °C 30.38in /  1028.7hPa SSE 2.3mph /  3.7km/h 2.3mph /  3.7km/h 98% 0.00in /  0cm
05:59 34.5 °F /  1.4 °C 34.0 °F /  1.1 °C 30.39in /  1029hPa SSE 2.3mph /  3.7km/h 2.3mph /  3.7km/h 98% 0.00in /  0cm
06:04 34.9 °F /  1.6 °C 34.4 °F /  1.3 °C 30.38in /  1028.7hPa South 1.2mph /  1.9km/h 1.2mph /  1.9km/h 98% 0.00in /  0cm
06:09 34.7 °F /  1.5 °C 33.9 °F /  1.1 °C 30.39in /  1029hPa Calm     97% 0.00in /  0cm
06:14 34.7 °F /  1.5 °C 33.9 °F /  1.1 °C 30.39in /  1029hPa Calm     97% 0.00in /  0cm
06:19 34.2 °F /  1.2 °C 33.7 °F /  0.9 °C 30.39in /  1029hPa Calm     98% 0.00in /  0cm
06:24 33.8 °F /  1 °C 33.3 °F /  0.7 °C 30.39in /  1029hPa Calm     98% 0.00in /  0cm
06:29 33.8 °F /  1 °C 33.3 °F /  0.7 °C 30.39in /  1029hPa SSE 2.3mph /  3.7km/h 2.3mph /  3.7km/h 98% 0.00in /  0cm
06:34 34.3 °F /  1.3 °C 34.1 °F /  1.2 °C 30.39in /  1029hPa South 2.3mph /  3.7km/h 2.3mph /  3.7km/h 99% 0.00in /  0cm
06:39 34.5 °F /  1.4 °C 34.3 °F /  1.3 °C 30.39in /  1029hPa Calm     99% 0.00in /  0cm
06:44 34.5 °F /  1.4 °C 34.3 °F /  1.3 °C 30.39in /  1029hPa Calm     99% 0.00in /  0cm
06:49 34.2 °F /  1.2 °C 33.9 °F /  1.1 °C 30.39in /  1029hPa Calm     99% 0.00in /  0cm
06:54 34.2 °F /  1.2 °C 33.9 °F /  1.1 °C 30.39in /  1029hPa Calm     99% 0.00in /  0cm
06:59 34.2 °F /  1.2 °C 33.9 °F /  1.1 °C 30.39in /  1029hPa Calm     99% 0.00in /  0cm
07:04 34.2 °F /  1.2 °C 33.9 °F /  1.1 °C 30.39in /  1029hPa Calm     99% 0.00in /  0cm
07:09 34.5 °F /  1.4 °C 34.3 °F /  1.3 °C 30.39in /  1029hPa Calm     99% 0.00in /  0cm
07:14 34.9 °F /  1.6 °C 34.6 °F /  1.4 °C 30.39in /  1029hPa Calm     99% 0.00in /  0cm
07:19 35.2 °F /  1.8 °C 35.0 °F /  1.7 °C 30.39in /  1029hPa Calm     99% 0.00in /  0cm
07:24 35.4 °F /  1.9 °C 35.2 °F /  1.8 °C 30.39in /  1029hPa Calm     99% 0.00in /  0cm
07:29 35.6 °F /  2 °C 35.3 °F /  1.8 °C 30.39in /  1029hPa Calm     99% 0.00in /  0cm
07:34 36.0 °F /  2.2 °C 35.5 °F /  1.9 °C 30.39in /  1029hPa South 3.3mph /  5.3km/h 3.3mph /  5.3km/h 98% 0.00in /  0cm
07:39 36.7 °F /  2.6 °C 36.4 °F /  2.4 °C 30.38in /  1028.7hPa ESE 1.2mph /  1.9km/h 1.2mph /  1.9km/h 99% 0.00in /  0cm
07:44 37.2 °F /  2.9 °C 37.0 °F /  2.8 °C 30.38in /  1028.7hPa South 2.3mph /  3.7km/h 2.3mph /  3.7km/h 99% 0.00in /  0cm
07:49 38.1 °F /  3.4 °C 37.9 °F /  3.3 °C 30.38in /  1028.7hPa South 2.3mph /  3.7km/h   99% 0.00in /  0cm
07:54 38.5 °F /  3.6 °C 38.2 °F /  3.4 °C 30.38in /  1028.7hPa SSE 6.9mph /  11.1km/h 6.9mph /  11.1km/h 99% 0.00in /  0cm
07:59 39.0 °F /  3.9 °C 38.5 °F /  3.6 °C 30.38in /  1028.7hPa SE 2.7mph /  4.3km/h 2.7mph /  4.3km/h 98% 0.00in /  0cm
08:04 39.6 °F /  4.2 °C 39.3 °F /  4.1 °C 30.38in /  1028.7hPa SSE 4.6mph /  7.4km/h 4.6mph /  7.4km/h 99% 0.00in /  0cm
08:09 39.9 °F /  4.4 °C 39.4 °F /  4.1 °C 30.38in /  1028.7hPa SSW 4.6mph /  7.4km/h 4.6mph /  7.4km/h 98% 0.00in /  0cm
08:14 40.1 °F /  4.5 °C 39.6 °F /  4.2 °C 30.38in /  1028.7hPa South 6.9mph /  11.1km/h 6.9mph /  11.1km/h 98% 0.00in /  0cm
08:19 40.8 °F /  4.9 °C 40.0 °F /  4.4 °C 30.38in /  1028.7hPa SSW 4.0mph /  6.4km/h 4.0mph /  6.4km/h 97% 0.00in /  0cm
08:24 41.0 °F /  5 °C 40.2 °F /  4.6 °C 30.38in /  1028.7hPa SSE 4.7mph /  7.6km/h 4.7mph /  7.6km/h 97% 0.00in /  0cm
08:29 41.4 °F /  5.2 °C 40.0 °F /  4.4 °C 30.38in /  1028.7hPa SSE 4.6mph /  7.4km/h 4.6mph /  7.4km/h 95% 0.00in /  0cm
08:34 41.7 °F /  5.4 °C 40.1 °F /  4.5 °C 30.38in /  1028.7hPa SE 4.6mph /  7.4km/h 4.6mph /  7.4km/h 94% 0.00in /  0cm
08:39 42.1 °F /  5.6 °C 40.2 °F /  4.6 °C 30.38in /  1028.7hPa SW 8.1mph /  13km/h 8.1mph /  13km/h 93% 0.00in /  0cm
08:44 42.4 °F /  5.8 °C 40.0 °F /  4.4 °C 30.38in /  1028.7hPa SW 2.3mph /  3.7km/h 2.3mph /  3.7km/h 91% 0.00in /  0cm
08:49 42.6 °F /  5.9 °C 39.9 °F /  4.4 °C 30.38in /  1028.7hPa SSE 7.1mph /  11.4km/h 7.1mph /  11.4km/h 90% 0.00in /  0cm
08:54 42.8 °F /  6 °C 40.1 °F /  4.5 °C 30.38in /  1028.7hPa South 8.1mph /  13km/h 8.1mph /  13km/h 90% 0.00in /  0cm
08:59 43.2 °F /  6.2 °C 39.8 °F /  4.3 °C 30.38in /  1028.7hPa South 6.9mph /  11.1km/h 6.9mph /  11.1km/h 88% 0.00in /  0cm
09:04 43.5 °F /  6.4 °C 40.2 °F /  4.6 °C 30.38in /  1028.7hPa SE 3.5mph /  5.6km/h 3.5mph /  5.6km/h 88% 0.00in /  0cm
09:09 43.9 °F /  6.6 °C 40.3 °F /  4.6 °C 30.38in /  1028.7hPa South 9.2mph /  14.8km/h 9.2mph /  14.8km/h 87% 0.00in /  0cm
09:14 43.7 °F /  6.5 °C 39.8 °F /  4.3 °C 30.38in /  1028.7hPa SSE 3.5mph /  5.6km/h 3.5mph /  5.6km/h 86% 0.00in /  0cm
09:19 43.9 °F /  6.6 °C 40.0 °F /  4.4 °C 30.37in /  1028.3hPa SSW 2.3mph /  3.7km/h 2.3mph /  3.7km/h 86% 0.00in /  0cm
09:24 44.2 °F /  6.8 °C 40.3 °F /  4.6 °C 30.37in /  1028.3hPa SSE 5.8mph /  9.3km/h 5.8mph /  9.3km/h 86% 0.00in /  0cm
09:29 44.6 °F /  7 °C 40.4 °F /  4.7 °C 30.37in /  1028.3hPa ESE 6.9mph /  11.1km/h 6.9mph /  11.1km/h 85% 0.00in /  0cm
09:34 45.1 °F /  7.3 °C 40.6 °F /  4.8 °C 30.37in /  1028.3hPa South 5.8mph /  9.3km/h 5.8mph /  9.3km/h 84% 0.00in /  0cm
09:39 45.5 °F /  7.5 °C 40.6 °F /  4.8 °C 30.37in /  1028.3hPa SE 4.6mph /  7.4km/h 4.6mph /  7.4km/h 83% 0.00in /  0cm
09:44 45.3 °F /  7.4 °C 40.5 °F /  4.7 °C 30.36in /  1028hPa SE 6.9mph /  11.1km/h 6.9mph /  11.1km/h 83% 0.00in /  0cm
09:49 45.5 °F /  7.5 °C 40.6 °F /  4.8 °C 30.36in /  1028hPa South 5.8mph /  9.3km/h 5.8mph /  9.3km/h 83% 0.00in /  0cm
09:54 46.0 °F /  7.8 °C 40.5 °F /  4.7 °C 30.36in /  1028hPa South 5.8mph /  9.3km/h 5.8mph /  9.3km/h 81% 0.00in /  0cm
09:59 46.4 °F /  8 °C 40.9 °F /  4.9 °C 30.36in /  1028hPa SSE 5.8mph /  9.3km/h 5.8mph /  9.3km/h 81% 0.00in /  0cm
10:04 46.4 °F /  8 °C 40.6 °F /  4.8 °C 30.36in /  1028hPa SE 6.9mph /  11.1km/h 6.9mph /  11.1km/h 80% 0.00in /  0cm
10:09 46.2 °F /  7.9 °C 40.4 °F /  4.7 °C 30.36in /  1028hPa South 3.5mph /  5.6km/h 3.5mph /  5.6km/h 80% 0.00in /  0cm
10:14 46.4 °F /  8 °C 40.6 °F /  4.8 °C 30.35in /  1027.7hPa SSE 4.6mph /  7.4km/h 4.6mph /  7.4km/h 80% 0.00in /  0cm
10:19 46.9 °F /  8.3 °C 41.1 °F /  5.1 °C 30.36in /  1028hPa WSW 4.6mph /  7.4km/h 4.6mph /  7.4km/h 80% 0.00in /  0cm
10:24 47.3 °F /  8.5 °C 41.1 °F /  5.1 °C 30.35in /  1027.7hPa SE 6.9mph /  11.1km/h 6.9mph /  11.1km/h 79% 0.00in /  0cm
10:29 47.7 °F /  8.7 °C 41.1 °F /  5.1 °C 30.35in /  1027.7hPa SSW 4.6mph /  7.4km/h 4.6mph /  7.4km/h 78% 0.00in /  0cm
10:34 48.4 °F /  9.1 °C 41.8 °F /  5.4 °C 30.35in /  1027.7hPa WSW 2.3mph /  3.7km/h 2.3mph /  3.7km/h 78% 0.00in /  0cm
10:39 48.4 °F /  9.1 °C 41.5 °F /  5.3 °C 30.35in /  1027.7hPa SE 4.6mph /  7.4km/h 4.6mph /  7.4km/h 77% 0.00in /  0cm
10:44 49.1 °F /  9.5 °C 42.2 °F /  5.7 °C 30.35in /  1027.7hPa SE 8.1mph /  13km/h 8.1mph /  13km/h 77% 0.00in /  0cm
10:49 48.9 °F /  9.4 °C 41.3 °F /  5.2 °C 30.35in /  1027.7hPa South 5.8mph /  9.3km/h 5.8mph /  9.3km/h 75% 0.00in /  0cm
10:54 49.1 °F /  9.5 °C 41.5 °F /  5.3 °C 30.35in /  1027.7hPa SSE 6.9mph /  11.1km/h 6.9mph /  11.1km/h 75% 0.00in /  0cm
10:59 49.8 °F /  9.9 °C 42.2 °F /  5.7 °C 30.35in /  1027.7hPa WSW 6.9mph /  11.1km/h 6.9mph /  11.1km/h 75% 0.00in /  0cm
11:04 50.0 °F /  10 °C 42.0 °F /  5.6 °C 30.34in /  1027.3hPa South 4.6mph /  7.4km/h 4.6mph /  7.4km/h 74% 0.00in /  0cm
11:09 50.2 °F /  10.1 °C 41.9 °F /  5.5 °C 30.34in /  1027.3hPa South 3.5mph /  5.6km/h 3.5mph /  5.6km/h 73% 0.00in /  0cm
11:14 50.9 °F /  10.5 °C 41.8 °F /  5.4 °C 30.34in /  1027.3hPa SSW 6.9mph /  11.1km/h 6.9mph /  11.1km/h 71% 0.00in /  0cm
11:19 51.3 °F /  10.7 °C 42.2 °F /  5.7 °C 30.34in /  1027.3hPa SSE 5.8mph /  9.3km/h 5.8mph /  9.3km/h 71% 0.00in /  0cm
11:24 51.8 °F /  11 °C 41.9 °F /  5.5 °C 30.34in /  1027.3hPa South 6.7mph /  10.8km/h 6.7mph /  10.8km/h 69% 0.00in /  0cm
11:29 51.6 °F /  10.9 °C 42.2 °F /  5.7 °C 30.34in /  1027.3hPa South 6.9mph /  11.1km/h 6.9mph /  11.1km/h 70% 0.00in /  0cm
11:34 52.0 °F /  11.1 °C 41.7 °F /  5.4 °C 30.34in /  1027.3hPa SSE 6.9mph /  11.1km/h 6.9mph /  11.1km/h 68% 0.00in /  0cm
Wether-Above
Compliments of Weather Underground
Welcome to Weather-Above
Cheddleton weather station supplies various organisations with data from our weather station one of them is the weather Underground this information displayed here is coming from the weather Underground server 

If any information is used please acknowledge the source to www weather-above.com or weather Underground